Findhorn, United Kingdom
Current Conditions -  °F | °C
As of 2:50 PM on Thursday 23 Oct 2014 (Local Time) from EGQK Reporting Station
Broken Clouds Broken Clouds  
Wind Chill: 59°   Ceiling: 5000
Heat Index: 59°   Visibility: 6mi
Dew Point: 50°   Wind: 15mph
Humidity: 72%   Direction: 200°SSW
Pressure: 29.59"   Gusts: 26mph
Location:  57.66°N, 3.61°W
Report Text: EGQK 231350Z 20013G23KT 9999 SCT035 BKN050 15/10 Q1002 BLU
Loading
Personal Weather Stations






























Interactive Weather Map
Tropical Storm Tracking
New forecast layout! Learn more

10-Day Weather Forecast

Advertisements
Track Severe Weather on mobile